sensor_id;sensor_type;location;lat;lon;timestamp;P1;durP1;ratioP1;P2;durP2;ratioP2
3847;SDS011;1939;48.720;9.166;2023-11-19T00:01:31;4.10;;;2.70;;
3847;SDS011;1939;48.720;9.166;2023-11-19T00:03:57;5.10;;;3.53;;
3847;SDS011;1939;48.720;9.166;2023-11-19T00:06:22;4.73;;;2.83;;
3847;SDS011;1939;48.720;9.166;2023-11-19T00:08:48;4.40;;;2.73;;
3847;SDS011;1939;48.720;9.166;2023-11-19T00:11:13;5.40;;;2.70;;
3847;SDS011;1939;48.720;9.166;2023-11-19T00:13:40;4.60;;;3.30;;
3847;SDS011;1939;48.720;9.166;2023-11-19T00:16:06;5.17;;;3.50;;
3847;SDS011;1939;48.720;9.166;2023-11-19T00:18:32;3.70;;;3.13;;
3847;SDS011;1939;48.720;9.166;2023-11-19T00:20:57;8.00;;;4.77;;
3847;SDS011;1939;48.720;9.166;2023-11-19T00:23:23;9.17;;;4.23;;
3847;SDS011;1939;48.720;9.166;2023-11-19T00:25:48;7.03;;;3.73;;
3847;SDS011;1939;48.720;9.166;2023-11-19T00:28:13;5.47;;;3.63;;
3847;SDS011;1939;48.720;9.166;2023-11-19T00:30:38;4.37;;;3.97;;
3847;SDS011;1939;48.720;9.166;2023-11-19T00:33:05;6.10;;;4.47;;
3847;SDS011;1939;48.720;9.166;2023-11-19T00:35:31;6.03;;;4.07;;
3847;SDS011;1939;48.720;9.166;2023-11-19T00:37:57;5.70;;;3.80;;
3847;SDS011;1939;48.720;9.166;2023-11-19T00:40:22;9.00;;;4.00;;
3847;SDS011;1939;48.720;9.166;2023-11-19T00:42:56;6.43;;;3.90;;
3847;SDS011;1939;48.720;9.166;2023-11-19T00:45:23;7.70;;;4.43;;
3847;SDS011;1939;48.720;9.166;2023-11-19T00:47:51;9.33;;;3.90;;
3847;SDS011;1939;48.720;9.166;2023-11-19T00:50:18;5.00;;;3.63;;
3847;SDS011;1939;48.720;9.166;2023-11-19T00:52:45;6.70;;;4.40;;
3847;SDS011;1939;48.720;9.166;2023-11-19T00:55:13;7.20;;;4.30;;
3847;SDS011;1939;48.720;9.166;2023-11-19T00:57:40;4.80;;;3.70;;
3847;SDS011;1939;48.720;9.166;2023-11-19T01:00:08;5.50;;;3.70;;
3847;SDS011;1939;48.720;9.166;2023-11-19T01:02:50;3.80;;;2.83;;
3847;SDS011;1939;48.720;9.166;2023-11-19T01:05:18;4.80;;;3.50;;
3847;SDS011;1939;48.720;9.166;2023-11-19T01:07:49;8.50;;;4.10;;
3847;SDS011;1939;48.720;9.166;2023-11-19T01:10:16;7.20;;;3.40;;
3847;SDS011;1939;48.720;9.166;2023-11-19T01:12:43;4.70;;;3.30;;
3847;SDS011;1939;48.720;9.166;2023-11-19T01:15:09;5.97;;;3.20;;
3847;SDS011;1939;48.720;9.166;2023-11-19T01:17:34;5.90;;;2.80;;
3847;SDS011;1939;48.720;9.166;2023-11-19T01:19:59;4.43;;;3.07;;
3847;SDS011;1939;48.720;9.166;2023-11-19T01:22:24;3.93;;;2.77;;
3847;SDS011;1939;48.720;9.166;2023-11-19T01:24:50;5.10;;;2.90;;
3847;SDS011;1939;48.720;9.166;2023-11-19T01:27:17;7.90;;;3.20;;
3847;SDS011;1939;48.720;9.166;2023-11-19T01:29:42;2.80;;;2.20;;
3847;SDS011;1939;48.720;9.166;2023-11-19T01:32:08;4.80;;;2.87;;
3847;SDS011;1939;48.720;9.166;2023-11-19T01:34:33;2.50;;;2.07;;
3847;SDS011;1939;48.720;9.166;2023-11-19T01:36:58;2.83;;;2.13;;
3847;SDS011;1939;48.720;9.166;2023-11-19T01:39:24;3.53;;;2.60;;
3847;SDS011;1939;48.720;9.166;2023-11-19T01:41:49;2.33;;;1.47;;
3847;SDS011;1939;48.720;9.166;2023-11-19T01:44:14;5.03;;;2.67;;
3847;SDS011;1939;48.720;9.166;2023-11-19T01:46:40;3.23;;;1.77;;
3847;SDS011;1939;48.720;9.166;2023-11-19T01:49:05;2.50;;;1.87;;
3847;SDS011;1939;48.720;9.166;2023-11-19T01:51:31;3.00;;;2.53;;
3847;SDS011;1939;48.720;9.166;2023-11-19T01:53:56;4.07;;;2.00;;
3847;SDS011;1939;48.720;9.166;2023-11-19T01:56:22;2.37;;;1.43;;
3847;SDS011;1939;48.720;9.166;2023-11-19T01:58:48;3.83;;;1.80;;
3847;SDS011;1939;48.720;9.166;2023-11-19T02:01:13;3.90;;;1.30;;
3847;SDS011;1939;48.720;9.166;2023-11-19T02:03:39;2.03;;;1.53;;
3847;SDS011;1939;48.720;9.166;2023-11-19T02:06:05;2.63;;;1.20;;
3847;SDS011;1939;48.720;9.166;2023-11-19T02:08:30;2.50;;;1.17;;
3847;SDS011;1939;48.720;9.166;2023-11-19T02:10:56;1.83;;;0.97;;
3847;SDS011;1939;48.720;9.166;2023-11-19T02:13:23;1.40;;;0.90;;
3847;SDS011;1939;48.720;9.166;2023-11-19T02:15:48;3.47;;;1.10;;
3847;SDS011;1939;48.720;9.166;2023-11-19T02:18:17;1.30;;;0.90;;
3847;SDS011;1939;48.720;9.166;2023-11-19T02:20:42;1.43;;;0.67;;
3847;SDS011;1939;48.720;9.166;2023-11-19T02:23:08;2.50;;;0.73;;
3847;SDS011;1939;48.720;9.166;2023-11-19T02:25:33;7.10;;;0.70;;
3847;SDS011;1939;48.720;9.166;2023-11-19T02:27:59;0.70;;;0.43;;
3847;SDS011;1939;48.720;9.166;2023-11-19T02:30:25;0.87;;;0.50;;
3847;SDS011;1939;48.720;9.166;2023-11-19T02:32:56;0.60;;;0.40;;
3847;SDS011;1939;48.720;9.166;2023-11-19T02:35:24;1.73;;;0.60;;
3847;SDS011;1939;48.720;9.166;2023-11-19T02:37:49;1.10;;;0.50;;
3847;SDS011;1939;48.720;9.166;2023-11-19T02:40:14;1.63;;;0.40;;
3847;SDS011;1939;48.720;9.166;2023-11-19T02:42:39;0.50;;;0.20;;
3847;SDS011;1939;48.720;9.166;2023-11-19T02:45:05;1.57;;;0.50;;
3847;SDS011;1939;48.720;9.166;2023-11-19T02:47:31;1.17;;;0.37;;
3847;SDS011;1939;48.720;9.166;2023-11-19T02:49:57;1.23;;;0.47;;
3847;SDS011;1939;48.720;9.166;2023-11-19T02:52:22;4.67;;;0.87;;
3847;SDS011;1939;48.720;9.166;2023-11-19T02:54:48;0.80;;;0.50;;
3847;SDS011;1939;48.720;9.166;2023-11-19T02:57:13;2.00;;;0.27;;
3847;SDS011;1939;48.720;9.166;2023-11-19T02:59:39;0.70;;;0.27;;
3847;SDS011;1939;48.720;9.166;2023-11-19T03:02:06;3.73;;;0.50;;
3847;SDS011;1939;48.720;9.166;2023-11-19T03:04:32;0.50;;;0.20;;
3847;SDS011;1939;48.720;9.166;2023-11-19T03:06:58;1.00;;;0.33;;
3847;SDS011;1939;48.720;9.166;2023-11-19T03:09:23;0.70;;;0.47;;
3847;SDS011;1939;48.720;9.166;2023-11-19T03:11:49;0.60;;;0.30;;
3847;SDS011;1939;48.720;9.166;2023-11-19T03:14:14;0.50;;;0.20;;
3847;SDS011;1939;48.720;9.166;2023-11-19T03:16:40;0.80;;;0.30;;
3847;SDS011;1939;48.720;9.166;2023-11-19T03:19:05;0.60;;;0.30;;
3847;SDS011;1939;48.720;9.166;2023-11-19T03:21:30;3.40;;;0.30;;
3847;SDS011;1939;48.720;9.166;2023-11-19T03:23:56;0.50;;;0.20;;
3847;SDS011;1939;48.720;9.166;2023-11-19T03:26:21;0.60;;;0.33;;
3847;SDS011;1939;48.720;9.166;2023-11-19T03:28:47;0.60;;;0.20;;
3847;SDS011;1939;48.720;9.166;2023-11-19T03:31:12;0.60;;;0.30;;
3847;SDS011;1939;48.720;9.166;2023-11-19T03:33:37;0.60;;;0.30;;
3847;SDS011;1939;48.720;9.166;2023-11-19T03:36:03;0.60;;;0.20;;
3847;SDS011;1939;48.720;9.166;2023-11-19T03:38:28;0.67;;;0.20;;
3847;SDS011;1939;48.720;9.166;2023-11-19T03:40:53;1.27;;;0.30;;
3847;SDS011;1939;48.720;9.166;2023-11-19T03:43:19;0.80;;;0.33;;
3847;SDS011;1939;48.720;9.166;2023-11-19T03:45:44;1.53;;;0.30;;
3847;SDS011;1939;48.720;9.166;2023-11-19T03:48:09;0.60;;;0.30;;
3847;SDS011;1939;48.720;9.166;2023-11-19T03:50:35;0.50;;;0.30;;
3847;SDS011;1939;48.720;9.166;2023-11-19T03:53:00;2.40;;;0.30;;
3847;SDS011;1939;48.720;9.166;2023-11-19T03:55:25;1.07;;;0.40;;
3847;SDS011;1939;48.720;9.166;2023-11-19T03:57:50;2.03;;;0.50;;
3847;SDS011;1939;48.720;9.166;2023-11-19T04:00:15;0.60;;;0.30;;
3847;SDS011;1939;48.720;9.166;2023-11-19T04:02:41;1.40;;;0.43;;
3847;SDS011;1939;48.720;9.166;2023-11-19T04:05:07;1.40;;;0.40;;
3847;SDS011;1939;48.720;9.166;2023-11-19T04:07:32;0.60;;;0.30;;
3847;SDS011;1939;48.720;9.166;2023-11-19T04:09:57;0.80;;;0.40;;
3847;SDS011;1939;48.720;9.166;2023-11-19T04:12:23;0.60;;;0.20;;
3847;SDS011;1939;48.720;9.166;2023-11-19T04:14:48;0.60;;;0.30;;
3847;SDS011;1939;48.720;9.166;2023-11-19T04:17:13;2.73;;;0.20;;
3847;SDS011;1939;48.720;9.166;2023-11-19T04:19:38;0.50;;;0.20;;
3847;SDS011;1939;48.720;9.166;2023-11-19T04:22:06;1.10;;;0.40;;
3847;SDS011;1939;48.720;9.166;2023-11-19T04:24:31;0.50;;;0.20;;
3847;SDS011;1939;48.720;9.166;2023-11-19T04:26:57;1.37;;;0.70;;
3847;SDS011;1939;48.720;9.166;2023-11-19T04:29:22;1.23;;;0.40;;
3847;SDS011;1939;48.720;9.166;2023-11-19T04:31:48;0.60;;;0.30;;
3847;SDS011;1939;48.720;9.166;2023-11-19T04:34:13;1.10;;;0.30;;
3847;SDS011;1939;48.720;9.166;2023-11-19T04:36:38;0.60;;;0.40;;
3847;SDS011;1939;48.720;9.166;2023-11-19T04:39:04;0.70;;;0.23;;
3847;SDS011;1939;48.720;9.166;2023-11-19T04:41:34;0.93;;;0.50;;
3847;SDS011;1939;48.720;9.166;2023-11-19T04:44:00;0.60;;;0.37;;
3847;SDS011;1939;48.720;9.166;2023-11-19T04:46:25;0.50;;;0.20;;
3847;SDS011;1939;48.720;9.166;2023-11-19T04:48:50;0.50;;;0.20;;
3847;SDS011;1939;48.720;9.166;2023-11-19T04:51:15;0.50;;;0.33;;
3847;SDS011;1939;48.720;9.166;2023-11-19T04:53:41;0.70;;;0.20;;
3847;SDS011;1939;48.720;9.166;2023-11-19T04:56:07;0.50;;;0.20;;
3847;SDS011;1939;48.720;9.166;2023-11-19T04:58:32;2.37;;;0.47;;
3847;SDS011;1939;48.720;9.166;2023-11-19T05:00:59;0.63;;;0.37;;
3847;SDS011;1939;48.720;9.166;2023-11-19T05:03:24;1.37;;;0.33;;
3847;SDS011;1939;48.720;9.166;2023-11-19T05:05:49;2.00;;;0.40;;
3847;SDS011;1939;48.720;9.166;2023-11-19T05:08:14;0.50;;;0.20;;
3847;SDS011;1939;48.720;9.166;2023-11-19T05:10:40;1.50;;;0.40;;
3847;SDS011;1939;48.720;9.166;2023-11-19T05:13:05;0.60;;;0.30;;
3847;SDS011;1939;48.720;9.166;2023-11-19T05:15:30;1.43;;;0.50;;
3847;SDS011;1939;48.720;9.166;2023-11-19T05:17:56;7.50;;;0.50;;
3847;SDS011;1939;48.720;9.166;2023-11-19T05:20:21;2.70;;;0.70;;
3847;SDS011;1939;48.720;9.166;2023-11-19T05:22:46;0.70;;;0.47;;
3847;SDS011;1939;48.720;9.166;2023-11-19T05:25:11;1.43;;;0.40;;
3847;SDS011;1939;48.720;9.166;2023-11-19T05:27:37;1.03;;;0.40;;
3847;SDS011;1939;48.720;9.166;2023-11-19T05:30:06;0.60;;;0.33;;
3847;SDS011;1939;48.720;9.166;2023-11-19T05:32:35;0.60;;;0.30;;
3847;SDS011;1939;48.720;9.166;2023-11-19T05:35:00;0.50;;;0.20;;
3847;SDS011;1939;48.720;9.166;2023-11-19T05:37:26;1.43;;;0.50;;
3847;SDS011;1939;48.720;9.166;2023-11-19T05:39:51;0.70;;;0.40;;
3847;SDS011;1939;48.720;9.166;2023-11-19T05:42:17;0.50;;;0.40;;
3847;SDS011;1939;48.720;9.166;2023-11-19T05:44:42;0.80;;;0.50;;
3847;SDS011;1939;48.720;9.166;2023-11-19T05:47:08;3.07;;;0.40;;
3847;SDS011;1939;48.720;9.166;2023-11-19T05:49:33;0.50;;;0.20;;
3847;SDS011;1939;48.720;9.166;2023-11-19T05:51:58;0.70;;;0.30;;
3847;SDS011;1939;48.720;9.166;2023-11-19T05:54:23;1.70;;;0.60;;
3847;SDS011;1939;48.720;9.166;2023-11-19T05:56:49;0.63;;;0.40;;
3847;SDS011;1939;48.720;9.166;2023-11-19T05:59:14;0.60;;;0.40;;
3847;SDS011;1939;48.720;9.166;2023-11-19T06:01:42;3.03;;;0.80;;
3847;SDS011;1939;48.720;9.166;2023-11-19T06:04:07;0.90;;;0.50;;
3847;SDS011;1939;48.720;9.166;2023-11-19T06:06:33;0.80;;;0.50;;
3847;SDS011;1939;48.720;9.166;2023-11-19T06:08:58;0.93;;;0.50;;
3847;SDS011;1939;48.720;9.166;2023-11-19T06:11:23;8.33;;;0.73;;
3847;SDS011;1939;48.720;9.166;2023-11-19T06:13:52;1.27;;;0.50;;
3847;SDS011;1939;48.720;9.166;2023-11-19T06:16:17;1.83;;;0.60;;
3847;SDS011;1939;48.720;9.166;2023-11-19T06:18:42;0.70;;;0.50;;
3847;SDS011;1939;48.720;9.166;2023-11-19T06:21:09;2.33;;;0.40;;
3847;SDS011;1939;48.720;9.166;2023-11-19T06:23:34;1.00;;;0.70;;
3847;SDS011;1939;48.720;9.166;2023-11-19T06:25:59;0.80;;;0.47;;
3847;SDS011;1939;48.720;9.166;2023-11-19T06:28:24;0.70;;;0.40;;
3847;SDS011;1939;48.720;9.166;2023-11-19T06:30:50;0.53;;;0.30;;
3847;SDS011;1939;48.720;9.166;2023-11-19T06:33:15;0.80;;;0.30;;
3847;SDS011;1939;48.720;9.166;2023-11-19T06:35:40;1.00;;;0.40;;
3847;SDS011;1939;48.720;9.166;2023-11-19T06:38:06;0.73;;;0.30;;
3847;SDS011;1939;48.720;9.166;2023-11-19T06:40:31;0.80;;;0.50;;
3847;SDS011;1939;48.720;9.166;2023-11-19T06:42:57;0.80;;;0.43;;
3847;SDS011;1939;48.720;9.166;2023-11-19T06:45:22;2.43;;;0.47;;
3847;SDS011;1939;48.720;9.166;2023-11-19T06:47:47;1.27;;;0.50;;
3847;SDS011;1939;48.720;9.166;2023-11-19T06:50:13;0.60;;;0.50;;
3847;SDS011;1939;48.720;9.166;2023-11-19T06:52:40;0.80;;;0.57;;
3847;SDS011;1939;48.720;9.166;2023-11-19T06:55:05;0.80;;;0.40;;
3847;SDS011;1939;48.720;9.166;2023-11-19T06:57:31;0.73;;;0.30;;
3847;SDS011;1939;48.720;9.166;2023-11-19T06:59:57;2.63;;;0.40;;
3847;SDS011;1939;48.720;9.166;2023-11-19T07:02:22;0.60;;;0.30;;
3847;SDS011;1939;48.720;9.166;2023-11-19T07:04:47;0.73;;;0.37;;
3847;SDS011;1939;48.720;9.166;2023-11-19T07:07:13;0.63;;;0.40;;
3847;SDS011;1939;48.720;9.166;2023-11-19T07:09:40;0.70;;;0.50;;
3847;SDS011;1939;48.720;9.166;2023-11-19T07:12:07;0.67;;;0.53;;
3847;SDS011;1939;48.720;9.166;2023-11-19T07:14:33;0.80;;;0.40;;
3847;SDS011;1939;48.720;9.166;2023-11-19T07:16:58;1.00;;;0.50;;
3847;SDS011;1939;48.720;9.166;2023-11-19T07:19:23;0.77;;;0.40;;
3847;SDS011;1939;48.720;9.166;2023-11-19T07:21:48;1.13;;;0.50;;
3847;SDS011;1939;48.720;9.166;2023-11-19T07:24:14;2.53;;;0.50;;
3847;SDS011;1939;48.720;9.166;2023-11-19T07:26:43;0.80;;;0.70;;
3847;SDS011;1939;48.720;9.166;2023-11-19T07:29:08;0.70;;;0.40;;
3847;SDS011;1939;48.720;9.166;2023-11-19T07:31:34;0.70;;;0.50;;
3847;SDS011;1939;48.720;9.166;2023-11-19T07:33:59;0.73;;;0.53;;
3847;SDS011;1939;48.720;9.166;2023-11-19T07:36:24;0.77;;;0.37;;
3847;SDS011;1939;48.720;9.166;2023-11-19T07:38:49;0.80;;;0.50;;
3847;SDS011;1939;48.720;9.166;2023-11-19T07:41:15;0.60;;;0.40;;
3847;SDS011;1939;48.720;9.166;2023-11-19T07:43:41;3.37;;;0.60;;
3847;SDS011;1939;48.720;9.166;2023-11-19T07:46:10;1.00;;;0.50;;
3847;SDS011;1939;48.720;9.166;2023-11-19T07:48:35;0.50;;;0.30;;
3847;SDS011;1939;48.720;9.166;2023-11-19T07:51:01;0.70;;;0.30;;
3847;SDS011;1939;48.720;9.166;2023-11-19T07:53:26;3.37;;;0.50;;
3847;SDS011;1939;48.720;9.166;2023-11-19T07:55:51;1.73;;;0.90;;
3847;SDS011;1939;48.720;9.166;2023-11-19T07:58:17;0.70;;;0.50;;
3847;SDS011;1939;48.720;9.166;2023-11-19T08:00:42;0.70;;;0.40;;
3847;SDS011;1939;48.720;9.166;2023-11-19T08:03:07;0.80;;;0.50;;
3847;SDS011;1939;48.720;9.166;2023-11-19T08:05:33;1.00;;;0.40;;
3847;SDS011;1939;48.720;9.166;2023-11-19T08:07:58;0.80;;;0.30;;
3847;SDS011;1939;48.720;9.166;2023-11-19T08:10:24;1.20;;;0.70;;
3847;SDS011;1939;48.720;9.166;2023-11-19T08:12:49;0.80;;;0.40;;
3847;SDS011;1939;48.720;9.166;2023-11-19T08:15:14;0.90;;;0.50;;
3847;SDS011;1939;48.720;9.166;2023-11-19T08:17:40;1.07;;;0.40;;
3847;SDS011;1939;48.720;9.166;2023-11-19T08:20:06;1.80;;;0.50;;
3847;SDS011;1939;48.720;9.166;2023-11-19T08:22:35;0.73;;;0.60;;
3847;SDS011;1939;48.720;9.166;2023-11-19T08:25:00;2.40;;;0.50;;
3847;SDS011;1939;48.720;9.166;2023-11-19T08:27:25;1.33;;;0.40;;
3847;SDS011;1939;48.720;9.166;2023-11-19T08:29:55;0.70;;;0.40;;
3847;SDS011;1939;48.720;9.166;2023-11-19T08:32:22;1.90;;;0.50;;
3847;SDS011;1939;48.720;9.166;2023-11-19T08:34:47;0.60;;;0.33;;
3847;SDS011;1939;48.720;9.166;2023-11-19T08:37:12;1.37;;;0.70;;
3847;SDS011;1939;48.720;9.166;2023-11-19T08:39:37;1.57;;;0.40;;
3847;SDS011;1939;48.720;9.166;2023-11-19T08:42:03;1.43;;;0.40;;
3847;SDS011;1939;48.720;9.166;2023-11-19T08:44:29;0.83;;;0.40;;
3847;SDS011;1939;48.720;9.166;2023-11-19T08:46:54;1.00;;;0.40;;
3847;SDS011;1939;48.720;9.166;2023-11-19T08:49:19;0.80;;;0.50;;
3847;SDS011;1939;48.720;9.166;2023-11-19T08:51:45;0.60;;;0.40;;
3847;SDS011;1939;48.720;9.166;2023-11-19T08:54:11;0.90;;;0.50;;
3847;SDS011;1939;48.720;9.166;2023-11-19T08:56:37;1.40;;;0.63;;
3847;SDS011;1939;48.720;9.166;2023-11-19T08:59:04;0.90;;;0.77;;
3847;SDS011;1939;48.720;9.166;2023-11-19T09:01:29;0.73;;;0.40;;
3847;SDS011;1939;48.720;9.166;2023-11-19T09:03:54;2.13;;;0.63;;
3847;SDS011;1939;48.720;9.166;2023-11-19T09:06:20;1.07;;;0.60;;
3847;SDS011;1939;48.720;9.166;2023-11-19T09:08:45;4.37;;;0.70;;
3847;SDS011;1939;48.720;9.166;2023-11-19T09:11:10;3.70;;;0.67;;
3847;SDS011;1939;48.720;9.166;2023-11-19T09:13:36;0.77;;;0.50;;
3847;SDS011;1939;48.720;9.166;2023-11-19T09:16:02;1.10;;;0.60;;
3847;SDS011;1939;48.720;9.166;2023-11-19T09:18:31;1.00;;;0.40;;
3847;SDS011;1939;48.720;9.166;2023-11-19T09:20:57;0.90;;;0.50;;
3847;SDS011;1939;48.720;9.166;2023-11-19T09:23:22;1.33;;;0.40;;
3847;SDS011;1939;48.720;9.166;2023-11-19T09:25:47;3.13;;;0.73;;
3847;SDS011;1939;48.720;9.166;2023-11-19T09:28:13;1.20;;;0.50;;
3847;SDS011;1939;48.720;9.166;2023-11-19T09:30:41;1.20;;;0.50;;
3847;SDS011;1939;48.720;9.166;2023-11-19T09:33:06;0.60;;;0.40;;
3847;SDS011;1939;48.720;9.166;2023-11-19T09:35:31;0.73;;;0.60;;
3847;SDS011;1939;48.720;9.166;2023-11-19T09:37:56;1.83;;;0.70;;
3847;SDS011;1939;48.720;9.166;2023-11-19T09:40:22;0.67;;;0.50;;
3847;SDS011;1939;48.720;9.166;2023-11-19T09:42:47;0.80;;;0.50;;
3847;SDS011;1939;48.720;9.166;2023-11-19T09:45:17;1.23;;;0.53;;
3847;SDS011;1939;48.720;9.166;2023-11-19T09:47:44;0.73;;;0.30;;
3847;SDS011;1939;48.720;9.166;2023-11-19T09:50:11;1.83;;;0.70;;
3847;SDS011;1939;48.720;9.166;2023-11-19T09:52:37;0.70;;;0.50;;
3847;SDS011;1939;48.720;9.166;2023-11-19T09:55:03;1.43;;;0.50;;
3847;SDS011;1939;48.720;9.166;2023-11-19T09:57:28;1.27;;;0.47;;
3847;SDS011;1939;48.720;9.166;2023-11-19T09:59:57;3.33;;;0.40;;
3847;SDS011;1939;48.720;9.166;2023-11-19T10:02:23;1.03;;;0.60;;
3847;SDS011;1939;48.720;9.166;2023-11-19T10:04:48;1.93;;;0.70;;
3847;SDS011;1939;48.720;9.166;2023-11-19T10:07:15;1.33;;;0.43;;
3847;SDS011;1939;48.720;9.166;2023-11-19T10:09:40;1.50;;;0.40;;
3847;SDS011;1939;48.720;9.166;2023-11-19T10:12:05;0.70;;;0.40;;
3847;SDS011;1939;48.720;9.166;2023-11-19T10:14:31;0.70;;;0.40;;
3847;SDS011;1939;48.720;9.166;2023-11-19T10:16:57;0.90;;;0.83;;
3847;SDS011;1939;48.720;9.166;2023-11-19T10:19:22;0.80;;;0.47;;
3847;SDS011;1939;48.720;9.166;2023-11-19T10:21:48;0.67;;;0.37;;
3847;SDS011;1939;48.720;9.166;2023-11-19T10:24:13;0.77;;;0.50;;
3847;SDS011;1939;48.720;9.166;2023-11-19T10:26:38;0.87;;;0.50;;
3847;SDS011;1939;48.720;9.166;2023-11-19T10:29:05;2.20;;;0.63;;
3847;SDS011;1939;48.720;9.166;2023-11-19T10:31:30;0.90;;;0.47;;
3847;SDS011;1939;48.720;9.166;2023-11-19T10:33:55;1.07;;;0.50;;
3847;SDS011;1939;48.720;9.166;2023-11-19T10:36:21;1.33;;;0.77;;
3847;SDS011;1939;48.720;9.166;2023-11-19T10:38:55;0.87;;;0.60;;
3847;SDS011;1939;48.720;9.166;2023-11-19T10:41:27;1.03;;;0.57;;
3847;SDS011;1939;48.720;9.166;2023-11-19T10:43:53;0.80;;;0.40;;
3847;SDS011;1939;48.720;9.166;2023-11-19T10:46:18;1.10;;;1.00;;
3847;SDS011;1939;48.720;9.166;2023-11-19T10:48:48;1.00;;;0.90;;
3847;SDS011;1939;48.720;9.166;2023-11-19T10:51:13;0.70;;;0.50;;
3847;SDS011;1939;48.720;9.166;2023-11-19T10:53:39;0.60;;;0.40;;
3847;SDS011;1939;48.720;9.166;2023-11-19T10:56:10;3.70;;;1.10;;
3847;SDS011;1939;48.720;9.166;2023-11-19T10:58:36;1.73;;;0.47;;
3847;SDS011;1939;48.720;9.166;2023-11-19T11:01:03;2.50;;;0.53;;
3847;SDS011;1939;48.720;9.166;2023-11-19T11:03:37;1.30;;;0.50;;
3847;SDS011;1939;48.720;9.166;2023-11-19T11:06:04;1.90;;;0.90;;
3847;SDS011;1939;48.720;9.166;2023-11-19T11:08:29;1.20;;;1.00;;
3847;SDS011;1939;48.720;9.166;2023-11-19T11:10:55;1.07;;;0.60;;
3847;SDS011;1939;48.720;9.166;2023-11-19T11:13:24;2.30;;;0.50;;
3847;SDS011;1939;48.720;9.166;2023-11-19T11:15:49;1.93;;;0.50;;
3847;SDS011;1939;48.720;9.166;2023-11-19T11:18:15;0.60;;;0.40;;
3847;SDS011;1939;48.720;9.166;2023-11-19T11:20:41;1.00;;;0.60;;
3847;SDS011;1939;48.720;9.166;2023-11-19T11:25:54;3.53;;;0.50;;
3847;SDS011;1939;48.720;9.166;2023-11-19T11:28:37;3.07;;;0.57;;
3847;SDS011;1939;48.720;9.166;2023-11-19T11:31:09;0.87;;;0.50;;
3847;SDS011;1939;48.720;9.166;2023-11-19T11:38:36;0.70;;;0.40;;
3847;SDS011;1939;48.720;9.166;2023-11-19T11:46:09;0.90;;;0.43;;
3847;SDS011;1939;48.720;9.166;2023-11-19T11:48:54;2.40;;;0.87;;
3847;SDS011;1939;48.720;9.166;2023-11-19T11:51:21;0.80;;;0.40;;
3847;SDS011;1939;48.720;9.166;2023-11-19T11:54:05;1.27;;;0.50;;
3847;SDS011;1939;48.720;9.166;2023-11-19T11:56:33;0.60;;;0.50;;
3847;SDS011;1939;48.720;9.166;2023-11-19T11:58:59;2.60;;;0.80;;
3847;SDS011;1939;48.720;9.166;2023-11-19T12:01:25;1.30;;;0.77;;
3847;SDS011;1939;48.720;9.166;2023-11-19T12:03:55;2.03;;;0.70;;
3847;SDS011;1939;48.720;9.166;2023-11-19T12:06:21;1.20;;;0.60;;
3847;SDS011;1939;48.720;9.166;2023-11-19T12:08:46;1.73;;;0.90;;
3847;SDS011;1939;48.720;9.166;2023-11-19T12:11:12;1.33;;;0.60;;
3847;SDS011;1939;48.720;9.166;2023-11-19T12:13:53;1.03;;;0.80;;
3847;SDS011;1939;48.720;9.166;2023-11-19T12:16:20;1.10;;;0.57;;
3847;SDS011;1939;48.720;9.166;2023-11-19T12:18:46;0.60;;;0.40;;
3847;SDS011;1939;48.720;9.166;2023-11-19T12:21:12;0.70;;;0.33;;
3847;SDS011;1939;48.720;9.166;2023-11-19T12:23:52;1.20;;;0.63;;
3847;SDS011;1939;48.720;9.166;2023-11-19T12:26:21;1.00;;;0.60;;
3847;SDS011;1939;48.720;9.166;2023-11-19T12:28:58;0.80;;;0.30;;
3847;SDS011;1939;48.720;9.166;2023-11-19T12:31:24;1.13;;;0.50;;
3847;SDS011;1939;48.720;9.166;2023-11-19T12:33:50;1.07;;;0.40;;
3847;SDS011;1939;48.720;9.166;2023-11-19T12:36:15;0.90;;;0.70;;
3847;SDS011;1939;48.720;9.166;2023-11-19T12:38:41;1.47;;;0.53;;
3847;SDS011;1939;48.720;9.166;2023-11-19T12:41:07;1.37;;;0.60;;
3847;SDS011;1939;48.720;9.166;2023-11-19T12:43:32;0.77;;;0.40;;
3847;SDS011;1939;48.720;9.166;2023-11-19T12:45:59;0.80;;;0.57;;
3847;SDS011;1939;48.720;9.166;2023-11-19T12:48:24;1.77;;;0.80;;
3847;SDS011;1939;48.720;9.166;2023-11-19T12:50:53;2.37;;;0.73;;
3847;SDS011;1939;48.720;9.166;2023-11-19T12:53:19;1.50;;;0.73;;
3847;SDS011;1939;48.720;9.166;2023-11-19T12:55:44;3.10;;;0.60;;
3847;SDS011;1939;48.720;9.166;2023-11-19T12:58:09;1.13;;;0.57;;
3847;SDS011;1939;48.720;9.166;2023-11-19T13:00:35;1.57;;;0.50;;
3847;SDS011;1939;48.720;9.166;2023-11-19T13:03:00;3.77;;;0.80;;
3847;SDS011;1939;48.720;9.166;2023-11-19T13:05:32;1.93;;;1.10;;
3847;SDS011;1939;48.720;9.166;2023-11-19T13:10:24;1.90;;;0.60;;
3847;SDS011;1939;48.720;9.166;2023-11-19T13:13:02;1.47;;;0.67;;
3847;SDS011;1939;48.720;9.166;2023-11-19T13:15:27;3.13;;;1.20;;
3847;SDS011;1939;48.720;9.166;2023-11-19T13:17:53;2.50;;;0.70;;
3847;SDS011;1939;48.720;9.166;2023-11-19T13:20:18;0.70;;;0.60;;
3847;SDS011;1939;48.720;9.166;2023-11-19T13:22:54;1.33;;;0.40;;
3847;SDS011;1939;48.720;9.166;2023-11-19T13:25:19;1.67;;;0.60;;
3847;SDS011;1939;48.720;9.166;2023-11-19T13:27:45;1.30;;;0.50;;
3847;SDS011;1939;48.720;9.166;2023-11-19T13:30:11;2.77;;;0.47;;
3847;SDS011;1939;48.720;9.166;2023-11-19T13:32:36;1.10;;;0.90;;
3847;SDS011;1939;48.720;9.166;2023-11-19T13:35:02;3.37;;;0.70;;
3847;SDS011;1939;48.720;9.166;2023-11-19T13:37:28;2.30;;;1.37;;
3847;SDS011;1939;48.720;9.166;2023-11-19T13:39:53;1.73;;;0.77;;
3847;SDS011;1939;48.720;9.166;2023-11-19T13:42:18;2.00;;;0.50;;
3847;SDS011;1939;48.720;9.166;2023-11-19T13:44:45;1.03;;;0.40;;
3847;SDS011;1939;48.720;9.166;2023-11-19T13:47:10;0.70;;;0.53;;
3847;SDS011;1939;48.720;9.166;2023-11-19T13:49:36;3.07;;;0.80;;
3847;SDS011;1939;48.720;9.166;2023-11-19T13:52:02;1.87;;;0.70;;
3847;SDS011;1939;48.720;9.166;2023-11-19T13:54:27;3.70;;;0.43;;
3847;SDS011;1939;48.720;9.166;2023-11-19T13:56:54;1.23;;;0.60;;
3847;SDS011;1939;48.720;9.166;2023-11-19T13:59:20;1.10;;;0.47;;
3847;SDS011;1939;48.720;9.166;2023-11-19T14:01:46;1.60;;;0.97;;
3847;SDS011;1939;48.720;9.166;2023-11-19T14:04:11;4.67;;;0.93;;
3847;SDS011;1939;48.720;9.166;2023-11-19T14:06:36;1.10;;;0.63;;
3847;SDS011;1939;48.720;9.166;2023-11-19T14:09:01;0.90;;;0.60;;
3847;SDS011;1939;48.720;9.166;2023-11-19T14:11:26;1.63;;;0.70;;
3847;SDS011;1939;48.720;9.166;2023-11-19T14:13:52;3.73;;;1.03;;
3847;SDS011;1939;48.720;9.166;2023-11-19T14:16:17;3.53;;;0.80;;
3847;SDS011;1939;48.720;9.166;2023-11-19T14:18:43;1.97;;;0.70;;
3847;SDS011;1939;48.720;9.166;2023-11-19T14:21:08;3.47;;;0.77;;
3847;SDS011;1939;48.720;9.166;2023-11-19T14:23:34;0.70;;;0.40;;
3847;SDS011;1939;48.720;9.166;2023-11-19T14:25:59;1.53;;;0.80;;
3847;SDS011;1939;48.720;9.166;2023-11-19T14:28:24;5.93;;;0.67;;
3847;SDS011;1939;48.720;9.166;2023-11-19T14:30:51;3.97;;;0.67;;
3847;SDS011;1939;48.720;9.166;2023-11-19T14:33:21;0.80;;;0.60;;
3847;SDS011;1939;48.720;9.166;2023-11-19T14:35:47;1.73;;;0.73;;
3847;SDS011;1939;48.720;9.166;2023-11-19T14:38:13;5.13;;;1.10;;
3847;SDS011;1939;48.720;9.166;2023-11-19T14:40:38;3.93;;;0.70;;
3847;SDS011;1939;48.720;9.166;2023-11-19T14:43:04;1.33;;;0.70;;
3847;SDS011;1939;48.720;9.166;2023-11-19T14:45:29;2.17;;;1.07;;
3847;SDS011;1939;48.720;9.166;2023-11-19T14:47:55;1.90;;;1.00;;
3847;SDS011;1939;48.720;9.166;2023-11-19T14:50:20;1.33;;;0.47;;
3847;SDS011;1939;48.720;9.166;2023-11-19T14:52:45;6.03;;;1.23;;
3847;SDS011;1939;48.720;9.166;2023-11-19T14:55:10;1.07;;;0.97;;
3847;SDS011;1939;48.720;9.166;2023-11-19T14:57:36;1.30;;;0.93;;
3847;SDS011;1939;48.720;9.166;2023-11-19T15:00:04;2.97;;;0.70;;
3847;SDS011;1939;48.720;9.166;2023-11-19T15:02:38;1.97;;;0.90;;
3847;SDS011;1939;48.720;9.166;2023-11-19T15:05:03;1.20;;;0.50;;
3847;SDS011;1939;48.720;9.166;2023-11-19T15:07:28;4.40;;;0.90;;
3847;SDS011;1939;48.720;9.166;2023-11-19T15:09:53;0.90;;;0.80;;
3847;SDS011;1939;48.720;9.166;2023-11-19T15:12:19;5.33;;;1.63;;
3847;SDS011;1939;48.720;9.166;2023-11-19T15:14:44;0.70;;;0.50;;
3847;SDS011;1939;48.720;9.166;2023-11-19T15:17:09;3.50;;;0.77;;
3847;SDS011;1939;48.720;9.166;2023-11-19T15:19:34;2.50;;;0.40;;
3847;SDS011;1939;48.720;9.166;2023-11-19T15:22:00;0.90;;;0.50;;
3847;SDS011;1939;48.720;9.166;2023-11-19T15:24:26;1.27;;;0.60;;